Latest Weather Observations for Melbourne

IDV60901

Issued at 11:45 am EST Tuesday 2 September 2014 (issued every 10 minutes, with the page automatically refreshed every 10 minutes)

About weather observations | Map of Melbourne area stations | Latest observations for Melbourne area | Other Formats
Station Details ID: 086071 Name: MELBOURNE REGIONAL OFFICE Lat: -37.81 Lon: 144.97 Height: 31.15 m
Data from the previous 72 hours. | See also: Recent months at Melbourne

* Apparent temperature (App Temp) for Melbourne is calculated using temperature observations collected at Melbourne and wind observations collected at Melbourne (Olympic Park), as wind observations are not currently provided for Melbourne.

Date/Time
EST
Tmp

°C
App
Tmp
°C
Dew
Point
°C
Rel
Hum
%
Delta-T

°C
Wind Press
QNH
hPa
Press
MSL
hPa
Rain
since
9 am
mm
Dir
 
Spd
km/h
Gust
km/h
Spd
kts
Gust
kts
02/11:30am 15.5 10.3 5.7 52 4.7 S 22 - 12 - 1018.5 - 0.2
02/11:00am 14.2 9.6 6.3 59 3.8 S 20 - 11 - 1018.6 - 0.2
02/10:30am 12.8 10.3 8.1 73 2.3 SSW 11 - 6 - 1018.5 - 0.2
02/10:00am 11.5 8.7 8.5 82 1.5 SW 13 - 7 - 1018.4 - 0.2
02/09:30am 11.9 8.9 7.6 75 2.1 SW 13 - 7 - 1018.2 - 0.0
02/09:00am 11.6 9.6 7.0 73 2.2 W 7 - 4 - 1017.8 1017.9 11.0
02/08:30am 11.2 9.1 6.8 74 2.1 W 7 - 4 - 1017.6 - 11.0
02/08:00am 10.2 8.0 6.3 77 1.8 W 7 - 4 - 1017.1 - 10.8
02/07:30am 9.4 6.9 6.4 81 1.4 W 9 - 5 - 1016.9 - 10.8
02/07:00am 9.3 7.2 6.7 84 1.2 W 7 - 4 - 1016.5 - 10.8
02/06:30am 9.5 6.8 7.2 85 1.1 W 11 - 6 - 1015.9 - 10.8
02/06:00am 9.5 7.5 7.2 85 1.1 W 7 - 4 - 1015.6 1015.5 10.8
02/05:30am 9.2 7.2 7.3 88 0.9 WNW 7 - 4 - 1015.2 - 10.8
02/05:00am 9.2 6.4 6.8 85 1.1 W 11 - 6 - 1014.9 - 10.6
02/04:30am 9.3 6.6 7.2 87 1.0 W 11 - 6 - 1014.6 - 10.6
02/04:00am 9.5 7.6 7.4 87 1.0 SW 7 - 4 - 1014.2 - 10.6
02/03:30am 9.5 7.6 7.4 87 1.0 SW 7 - 4 - 1014.2 - 10.6
02/03:00am 9.2 6.9 7.5 89 0.8 W 9 - 5 - 1013.8 1013.7 10.4
02/02:30am 9.3 7.4 7.6 89 0.8 W 7 - 4 - 1013.6 - 10.4
02/02:00am 9.7 7.5 8.0 89 0.8 W 9 - 5 - 1013.7 - 10.2
02/01:30am 10.0 7.7 7.5 84 1.2 S 9 - 5 - 1013.7 - 9.8
02/01:00am 10.0 7.9 6.8 80 1.5 WSW 7 - 4 - 1013.3 - 9.8
02/12:30am 10.0 7.6 7.0 81 1.4 WSW 9 - 5 - 1013.2 - 9.8
02/12:00am 10.0 7.7 7.5 84 1.2 W 9 - 5 - 1013.2 1013.1 9.8
 
Date/Time
EST
Tmp

°C
App
Tmp
°C
Dew
Point
°C
Rel
Hum
%
Delta-T

°C
Wind Press
QNH
hPa
Press
MSL
hPa
Rain
since
9 am
mm
Dir
 
Spd
km/h
Gust
km/h
Spd
kts
Gust
kts
01/11:30pm 10.4 8.8 7.9 84 1.2 W 6 - 3 - 1012.8 - 9.8
01/11:00pm 10.4 8.7 7.7 83 1.3 W 6 - 3 - 1012.8 - 9.8
01/10:30pm 10.4 9.1 7.7 83 1.3 W 4 - 2 - 1012.6 - 9.8
01/10:00pm 10.4 9.1 7.5 82 1.4 W 4 - 2 - 1012.6 - 9.8
01/09:30pm 10.4 8.9 7.0 79 1.6 WNW 4 - 2 - 1012.6 - 9.8
01/09:00pm 10.3 8.3 6.9 79 1.6 NW 7 - 4 - 1012.4 1012.3 9.8
01/08:30pm 10.0 8.0 7.0 81 1.4 WNW 7 - 4 - 1012.2 - 9.8
01/08:00pm 10.3 8.7 7.8 84 1.2 W 6 - 3 - 1011.8 - 9.8
01/07:30pm 10.2 9.0 7.9 86 1.1 W 4 - 2 - 1011.3 - 9.8
01/07:00pm 10.4 9.0 8.8 90 0.8 W 6 - 3 - 1011.0 - 9.8
01/06:30pm 11.4 11.4 9.8 90 0.8 CALM 0 - 0 - 1010.7 - 7.2
01/06:00pm 11.2 10.8 9.8 91 0.7 SW 2 - 1 - 1010.1 1010.2 6.8
01/05:30pm 12.5 9.2 9.6 82 1.5 S 17 - 9 - 1009.8 - 6.0
01/05:00pm 12.3 11.0 9.3 82 1.5 WNW 6 - 3 - 1009.2 - 5.6
01/04:30pm 12.3 11.0 9.8 85 1.3 WNW 7 - 4 - 1009.1 - 5.6
01/04:00pm 12.2 11.9 10.1 87 1.1 WSW 2 - 1 - 1008.7 - 5.6
01/03:30pm 12.4 11.5 9.4 82 1.5 WSW 4 - 2 - 1008.8 - 5.0
01/03:00pm 12.4 11.5 9.2 81 1.6 SW 4 - 2 - 1008.6 1008.6 4.8
01/02:30pm 12.5 10.0 9.8 83 1.4 WSW 13 - 7 - 1008.7 - 4.6
01/02:00pm 13.2 12.0 10.3 82 1.5 N 7 - 4 - 1008.1 - 2.8
01/01:30pm 13.1 11.3 9.6 79 1.8 N 9 - 5 - 1008.5 - 2.8
01/01:00pm 13.3 11.6 9.8 79 1.8 N 9 - 5 - 1008.9 - 2.4
01/12:30pm 13.2 11.4 9.5 78 1.9 N 9 - 5 - 1008.6 - 2.2
01/12:00pm 13.0 11.0 8.8 75 2.1 NNW 9 - 5 - 1008.9 1008.9 1.8
01/11:30am 12.8 11.2 8.6 75 2.1 N 7 - 4 - 1008.7 - 1.6
01/11:00am 15.0 11.2 5.6 53 4.5 NNW 15 - 8 - 1009.0 - 0.0
01/10:30am 15.3 11.9 3.8 46 5.3 NNW 11 - 6 - 1009.3 - 0.0
01/10:00am 15.1 10.0 4.1 47 5.1 NNW 20 - 11 - 1009.1 - 0.0
01/09:30am 14.9 9.4 3.8 47 5.1 NNW 22 - 12 - 1009.4 - 0.0
01/09:00am 15.2 10.5 3.4 45 5.4 N 17 - 9 - 1008.8 1008.8 0.0
01/08:30am 15.0 10.0 3.7 46 5.2 N 19 - 10 - 1008.7 - 0.0
01/08:00am 15.3 10.6 3.2 44 5.5 N 17 - 9 - 1008.9 - 0.0
01/07:30am 15.3 9.2 2.9 43 5.6 N 24 - 13 - 1008.3 - 0.0
01/07:00am 15.5 10.2 2.9 42 5.7 N 20 - 11 - 1008.2 - 0.0
01/06:30am 15.5 10.2 2.9 42 5.7 N 20 - 11 - 1008.7 - 0.0
01/06:00am 15.8 9.3 2.5 40 6.0 N 26 - 14 - 1008.8 1008.8 0.0
01/05:30am 16.3 10.9 2.3 39 6.3 NNW 20 - 11 - 1008.8 - 0.0
01/05:00am 16.8 12.3 2.2 37 6.6 N 15 - 8 - 1008.1 - 0.0
01/04:30am 17.0 12.1 2.2 37 6.7 N 17 - 9 - 1007.7 - 0.0
01/04:00am 16.7 11.2 2.0 37 6.6 N 20 - 11 - 1008.1 - 0.0
01/03:30am 16.6 11.2 2.5 38 6.4 N 20 - 11 - 1008.8 - 0.0
01/03:00am 16.6 11.3 2.8 39 6.3 N 20 - 11 - 1009.0 1009.0 0.0
01/02:30am 17.1 12.0 3.3 39 6.4 N 19 - 10 - 1009.1 - 0.0
01/02:00am 17.8 12.0 2.2 35 7.1 N 22 - 12 - 1009.5 - 0.0
01/01:30am 17.7 12.3 2.7 36 6.9 N 20 - 11 - 1010.0 - 0.0
01/01:00am 17.4 12.4 3.7 40 6.4 N 19 - 10 - 1010.3 - 0.0
01/12:30am 17.2 12.3 4.3 42 6.1 N 19 - 10 - 1010.3 - 0.0
01/12:00am 17.7 13.3 5.0 43 6.1 N 17 - 9 - 1010.3 1010.3 0.0
 
Date/Time
EST
Tmp

°C
App
Tmp
°C
Dew
Point
°C
Rel
Hum
%
Delta-T

°C
Wind Press
QNH
hPa
Press
MSL
hPa
Rain
since
9 am
mm
Dir
 
Spd
km/h
Gust
km/h
Spd
kts
Gust
kts
31/11:30pm 17.8 13.7 4.3 40 6.4 NNE 15 - 8 - 1010.1 - 0.0
31/11:00pm 17.4 13.9 5.4 45 5.8 NNE 13 - 7 - 1010.4 - 0.0
31/10:30pm 17.4 14.3 5.7 46 5.7 NNE 11 - 6 - 1011.3 - 0.0
31/10:00pm 17.3 14.7 6.3 48 5.4 NNE 9 - 5 - 1012.0 - 0.0
31/09:30pm 17.5 14.9 6.3 47 5.5 N 9 - 5 - 1012.7 - 0.0
31/09:00pm 17.6 14.3 6.5 48 5.5 NNE 13 - 7 - 1012.6 1012.6 0.0
31/08:30pm 17.5 13.9 6.6 48 5.4 NNE 15 - 8 - 1012.8 - 0.0
31/08:00pm 17.8 14.1 6.5 47 5.6 NNE 15 - 8 - 1013.1 - 0.0
31/07:30pm 17.9 14.6 6.6 47 5.6 NNE 13 - 7 - 1013.3 - 0.0
31/07:00pm 18.1 14.9 6.7 47 5.7 NNE 13 - 7 - 1013.3 - 0.0
31/06:30pm 18.2 14.9 6.5 46 5.8 NNE 13 - 7 - 1013.5 - 0.0
31/06:00pm 18.5 15.2 6.2 44 6.1 NNE 13 - 7 - 1013.9 1013.9 0.0
31/05:30pm 19.0 14.8 5.5 41 6.6 N 17 - 9 - 1014.1 - 0.0
31/05:00pm 19.4 15.1 5.3 39 6.9 N 17 - 9 - 1014.0 - 0.0
31/04:30pm 19.7 14.9 4.6 37 7.3 N 19 - 10 - 1013.8 - 0.0
31/04:00pm 19.8 14.6 5.3 38 7.1 N 22 - 12 - 1013.8 - 0.0
31/03:30pm 20.0 14.4 5.4 38 7.2 N 24 - 13 - 1014.0 - 0.0
31/03:00pm 20.9 14.9 5.3 36 7.7 N 26 - 14 - 1014.5 1014.5 0.0
31/02:30pm 20.5 14.6 4.1 34 7.9 N 24 - 13 - 1015.1 - 0.0
31/02:00pm 20.1 13.9 4.3 35 7.6 N 26 - 14 - 1015.0 - 0.0
31/01:30pm 20.8 15.0 4.6 34 7.9 N 24 - 13 - 1015.4 - 0.0
31/01:00pm 21.0 15.3 4.9 35 7.9 N 24 - 13 - 1015.7 - 0.0
31/12:30pm 20.2 14.4 4.5 35 7.6 N 24 - 13 - 1016.2 - 0.0
31/12:00pm 20.5 15.1 4.4 34 7.8 N 22 - 12 - 1016.7 1016.9 0.0
31/11:30am 20.1 15.6 4.0 34 7.7 N 17 - 9 - 1017.2 - 0.0
31/11:00am 18.6 14.0 5.5 42 6.4 N 19 - 10 - 1017.6 - 0.0
31/10:30am 17.5 12.7 5.5 45 5.8 N 20 - 11 - 1018.0 - 0.0
31/10:00am 16.9 12.2 5.2 46 5.6 N 19 - 10 - 1018.4 - 0.0
31/09:30am 16.2 11.6 6.3 52 4.8 N 20 - 11 - 1018.9 - 0.0
31/09:00am 15.3 11.3 6.7 56 4.2 N 17 - 9 - 1019.1 1019.2 0.0
31/08:30am 13.9 10.4 7.4 65 3.2 NNE 15 - 8 - 1019.1 - 0.0
31/08:00am 12.8 9.8 7.7 71 2.5 NNE 13 - 7 - 1019.2 - 0.0
31/07:30am 12.2 9.2 7.7 74 2.2 NNE 13 - 7 - 1019.4 - 0.0
31/07:00am 11.9 8.9 7.6 75 2.1 NNE 13 - 7 - 1019.2 - 0.0
31/06:30am 11.8 8.7 7.2 73 2.2 NNE 13 - 7 - 1019.2 - 0.0
31/06:00am 11.8 8.7 7.2 73 2.2 NNE 13 - 7 - 1018.9 1019.0 0.0
31/05:30am 11.5 8.7 7.1 74 2.1 NNE 11 - 6 - 1018.7 - 0.0
31/05:00am 11.1 8.3 6.9 75 2.0 NNE 11 - 6 - 1018.6 - 0.0
31/04:30am 11.0 8.2 7.0 76 1.9 N 11 - 6 - 1018.8 - 0.0
31/04:00am 11.4 8.2 7.0 74 2.1 NNE 13 - 7 - 1018.8 - 0.0
31/03:30am 11.6 8.9 7.2 74 2.1 NNE 11 - 6 - 1018.9 - 0.0
31/03:00am 11.4 8.7 7.2 75 2.0 NNE 11 - 6 - 1019.0 1019.1 0.0
31/02:30am 11.4 8.3 7.2 75 2.0 NNE 13 - 7 - 1019.3 - 0.0
31/02:00am 11.6 9.3 7.4 75 2.0 N 9 - 5 - 1019.6 - 0.0
31/01:30am 11.9 9.6 7.6 75 2.1 N 9 - 5 - 1019.9 - 0.0
31/01:00am 12.1 9.8 7.6 74 2.2 N 9 - 5 - 1020.1 - 0.0
31/12:30am 12.6 10.0 7.7 72 2.4 NNE 11 - 6 - 1020.3 - 0.0
31/12:00am 12.6 10.0 7.7 72 2.4 NNE 11 - 6 - 1020.4 1020.5 0.0
 
Date/Time
EST
Tmp

°C
App
Tmp
°C
Dew
Point
°C
Rel
Hum
%
Delta-T

°C
Wind Press
QNH
hPa
Press
MSL
hPa
Rain
since
9 am
mm
Dir
 
Spd
km/h
Gust
km/h
Spd
kts
Gust
kts
30/11:30pm 13.1 10.8 7.6 69 2.7 NNE 9 - 5 - 1020.7 - 0.0
30/11:00pm 13.5 10.9 7.8 68 2.8 NNE 11 - 6 - 1021.0 - 0.0
30/10:30pm 14.1 11.6 8.1 67 3.0 NNE 11 - 6 - 1021.4 - 0.0
30/10:00pm 14.7 12.9 8.1 64 3.3 N 7 - 4 - 1021.7 - 0.0
30/09:30pm 15.2 13.4 8.0 62 3.6 N 7 - 4 - 1021.8 - 0.0
30/09:00pm 15.4 13.4 8.5 63 3.5 N 9 - 5 - 1021.8 1021.9 0.0
30/08:30pm 16.2 14.4 8.1 58 4.1 N 7 - 4 - 1021.7 - 0.0
30/08:00pm 17.0 14.9 8.1 55 4.5 N 9 - 5 - 1021.5 - 0.0
30/07:30pm 17.6 16.3 7.7 52 5.0 N 4 - 2 - 1021.4 - 0.0
30/07:00pm 18.0 15.8 8.0 52 5.1 NNE 9 - 5 - 1021.2 - 0.0
30/06:30pm 18.5 16.3 7.9 50 5.4 NNE 9 - 5 - 1021.4 - 0.0
30/06:00pm 18.9 16.2 7.2 46 5.9 N 11 - 6 - 1021.4 1021.5 0.0
30/05:30pm 19.4 15.8 6.6 43 6.4 N 15 - 8 - 1021.3 - 0.0
30/05:00pm 20.2 16.8 5.9 39 7.1 N 13 - 7 - 1021.3 - 0.0
30/04:30pm 20.5 16.6 6.9 41 6.9 N 17 - 9 - 1021.3 - 0.0
30/04:00pm 20.5 17.0 7.1 42 6.8 N 15 - 8 - 1021.2 - 0.0
30/03:30pm 20.9 17.4 7.2 41 7.0 N 15 - 8 - 1021.3 - 0.0
30/03:00pm 20.5 16.6 7.1 42 6.8 N 17 - 9 - 1021.5 1021.5 0.0
30/02:30pm 21.0 17.0 6.8 39 7.2 N 17 - 9 - 1021.7 - 0.0
30/02:00pm 20.1 16.1 6.5 41 6.8 NNE 17 - 9 - 1022.1 - 0.0
30/01:30pm 20.6 16.1 7.0 41 6.9 N 20 - 11 - 1022.3 - 0.0
30/01:00pm 20.0 15.2 5.8 39 7.0 NNW 20 - 11 - 1023.0 - 0.0
30/12:30pm 19.9 15.2 6.0 40 6.9 N 20 - 11 - 1023.3 - 0.0
30/12:00pm 19.2 15.1 6.0 42 6.5 N 17 - 9 - 1023.7 1023.8 0.0

Latest Capital City Observations: Canberra | Sydney | Melbourne | Brisbane | Adelaide | Perth | Hobart | Darwin

Other Formats:

Comma delimited format used in spreadsheet applications
http://www.bom.gov.au/fwo/IDV60901/IDV60901.94868.axf

JavaScript Object Notation format (JSON) in row-major order
http://www.bom.gov.au/fwo/IDV60901/IDV60901.94868.json